createdAt,value
2018-06-24T00:01:25.523Z,69.45
2018-06-24T00:03:54.824Z,70.05
2018-06-24T00:06:24.057Z,69.91
2018-06-24T00:08:53.307Z,70.97
2018-06-24T00:11:22.570Z,71.07
2018-06-24T00:13:51.854Z,71.56
2018-06-24T00:16:20.797Z,71.69
2018-06-24T00:18:50.100Z,72.22
2018-06-24T00:21:19.383Z,71.79
2018-06-24T00:23:48.681Z,71.60
2018-06-24T00:26:17.990Z,71.56
2018-06-24T00:28:47.322Z,71.98
2018-06-24T00:31:16.712Z,71.90
2018-06-24T00:33:46.070Z,72.05
2018-06-24T00:36:15.412Z,72.28
2018-06-24T00:38:44.838Z,72.68
2018-06-24T00:41:14.303Z,72.58
2018-06-24T00:43:43.611Z,73.50
2018-06-24T00:46:12.917Z,73.89
2018-06-24T00:48:42.936Z,73.94
2018-06-24T00:51:12.303Z,74.43
2018-06-24T00:53:41.649Z,74.33
2018-06-24T00:56:10.990Z,73.91
2018-06-24T00:58:40.298Z,73.60
2018-06-24T01:01:09.635Z,73.97
2018-06-24T01:03:38.898Z,74.15
2018-06-24T01:06:08.204Z,74.68
2018-06-24T01:08:37.496Z,74.87
2018-06-24T01:11:06.851Z,75.18
2018-06-24T01:13:36.127Z,75.31
2018-06-24T01:16:05.434Z,74.68
2018-06-24T01:18:34.792Z,75.27
2018-06-24T01:21:04.147Z,75.31
2018-06-24T01:23:33.399Z,75.24
2018-06-24T01:26:02.732Z,75.02
2018-06-24T01:28:32.010Z,74.93
2018-06-24T01:31:01.345Z,75.44
2018-06-24T01:33:30.674Z,75.20
2018-06-24T01:36:00.013Z,75.57
2018-06-24T01:38:29.268Z,75.65
2018-06-24T01:40:58.564Z,75.54
2018-06-24T01:43:27.839Z,76.48
2018-06-24T01:45:57.114Z,76.59
2018-06-24T01:48:26.378Z,77.53
2018-06-24T01:50:55.667Z,77.53
2018-06-24T01:53:24.915Z,78.01
2018-06-24T01:55:54.207Z,78.18
2018-06-24T01:58:23.421Z,78.76
2018-06-24T02:00:52.664Z,78.57
2018-06-24T02:03:21.914Z,78.71
2018-06-24T02:05:51.181Z,79.04
2018-06-24T02:08:20.462Z,79.30
2018-06-24T02:10:49.784Z,79.82
2018-06-24T02:13:19.087Z,79.40
2018-06-24T02:15:48.516Z,79.77
2018-06-24T02:18:17.837Z,79.94
2018-06-24T02:20:47.048Z,80.03
2018-06-24T02:23:16.370Z,80.33
2018-06-24T02:25:45.680Z,81.00
2018-06-24T02:28:14.946Z,81.66
2018-06-24T02:30:44.251Z,81.82
2018-06-24T02:33:13.530Z,82.15
2018-06-24T02:35:43.269Z,82.02
2018-06-24T02:38:12.595Z,81.03
2018-06-24T02:40:41.868Z,81.52
2018-06-24T02:43:11.169Z,81.13
2018-06-24T02:45:40.443Z,81.71
2018-06-24T02:48:09.731Z,81.48
2018-06-24T02:50:39.095Z,81.91
2018-06-24T02:53:08.103Z,81.78
2018-06-24T02:55:37.344Z,82.40
2018-06-24T02:58:06.638Z,82.08
2018-06-24T03:00:35.911Z,81.90
2018-06-24T03:03:05.185Z,81.50
2018-06-24T03:05:34.436Z,81.72
2018-06-24T03:08:03.869Z,81.79
2018-06-24T03:10:33.170Z,81.16
2018-06-24T03:13:02.478Z,81.28
2018-06-24T03:15:31.841Z,81.68
2018-06-24T03:18:01.215Z,80.47
2018-06-24T03:20:30.552Z,80.73
2018-06-24T03:22:59.883Z,81.08
2018-06-24T03:25:29.142Z,81.05
2018-06-24T03:27:58.471Z,80.50
2018-06-24T03:30:27.765Z,79.62
2018-06-24T03:32:57.155Z,80.18
2018-06-24T03:35:26.448Z,80.71
2018-06-24T03:37:55.793Z,80.71
2018-06-24T03:40:25.386Z,81.05
2018-06-24T03:42:54.719Z,80.36
2018-06-24T03:45:24.011Z,80.79
2018-06-24T03:47:53.305Z,80.29
2018-06-24T03:50:22.615Z,79.90
2018-06-24T03:52:51.886Z,79.63
2018-06-24T03:55:21.168Z,78.90
2018-06-24T03:57:50.423Z,78.08
2018-06-24T04:00:19.719Z,78.63
2018-06-24T04:02:48.962Z,77.71
2018-06-24T04:05:18.219Z,78.13
2018-06-24T04:07:47.483Z,77.62
2018-06-24T04:10:16.756Z,77.23
2018-06-24T04:12:46.063Z,76.27
2018-06-24T04:15:15.306Z,76.80
2018-06-24T04:17:44.577Z,76.67
2018-06-24T04:20:13.930Z,76.87
2018-06-24T04:22:43.200Z,76.57
2018-06-24T04:25:12.817Z,75.07
2018-06-24T04:27:42.194Z,74.42
2018-06-24T04:30:11.417Z,75.13
2018-06-24T04:32:40.666Z,73.96
2018-06-24T04:35:09.921Z,73.99
2018-06-24T04:37:39.164Z,73.91
2018-06-24T04:40:08.414Z,74.43
2018-06-24T04:42:37.709Z,74.02
2018-06-24T04:45:07.235Z,74.38
2018-06-24T04:47:36.468Z,73.33
2018-06-24T04:50:05.842Z,73.65
2018-06-24T04:52:35.067Z,73.77
2018-06-24T04:55:04.342Z,71.63
2018-06-24T04:57:33.598Z,71.89
2018-06-24T05:00:02.879Z,72.82
2018-06-24T05:02:32.118Z,73.10
2018-06-24T05:05:01.399Z,72.82
2018-06-24T05:07:30.663Z,72.06
2018-06-24T05:09:59.929Z,71.39
2018-06-24T05:12:29.146Z,71.38
2018-06-24T05:14:58.423Z,71.02
2018-06-24T05:17:27.740Z,70.21
2018-06-24T05:19:57.063Z,69.25
2018-06-24T05:22:26.350Z,68.25
2018-06-24T05:24:55.641Z,69.01
2018-06-24T05:27:24.872Z,68.76
2018-06-24T05:29:54.176Z,68.72
2018-06-24T05:32:23.530Z,67.68
2018-06-24T05:34:52.798Z,68.89
2018-06-24T05:37:22.088Z,67.10
2018-06-24T05:39:51.377Z,68.00
2018-06-24T05:42:20.714Z,68.31
2018-06-24T05:44:50.038Z,68.00
2018-06-24T05:47:19.343Z,66.98
2018-06-24T05:49:48.624Z,66.11
2018-06-24T05:52:17.909Z,65.66
2018-06-24T05:54:47.247Z,66.05
2018-06-24T05:57:16.598Z,66.34
2018-06-24T05:59:46.000Z,66.15
2018-06-24T06:02:15.338Z,65.04
2018-06-24T06:04:44.683Z,63.35
2018-06-24T06:07:14.095Z,62.41
2018-06-24T06:09:43.854Z,61.45
2018-06-24T06:12:13.183Z,62.78
2018-06-24T06:14:42.289Z,64.11
2018-06-24T06:17:11.564Z,63.90
2018-06-24T06:19:40.956Z,63.38
2018-06-24T06:22:10.300Z,62.83
2018-06-24T06:24:39.595Z,63.10
2018-06-24T06:27:08.965Z,62.05
2018-06-24T06:29:38.276Z,62.06
2018-06-24T06:32:07.555Z,62.17
2018-06-24T06:34:36.773Z,61.42
2018-06-24T06:37:06.283Z,59.41
2018-06-24T06:39:35.537Z,59.95
2018-06-24T06:42:04.925Z,59.33
2018-06-24T06:44:34.183Z,57.69
2018-06-24T06:47:03.603Z,57.46
2018-06-24T06:49:32.875Z,56.05
2018-06-24T06:52:02.199Z,56.82
2018-06-24T06:54:31.458Z,56.34
2018-06-24T06:57:00.901Z,56.71
2018-06-24T06:59:30.290Z,57.16
2018-06-24T07:01:59.791Z,58.45
2018-06-24T07:04:29.292Z,59.74
2018-06-24T07:06:58.818Z,58.67
2018-06-24T07:09:28.347Z,59.06
2018-06-24T07:11:57.694Z,60.60
2018-06-24T07:16:54.579Z,58.05
2018-06-24T07:19:24.050Z,58.11
2018-06-24T07:21:53.371Z,59.59
2018-06-24T07:24:22.831Z,60.41
2018-06-24T07:26:52.167Z,59.76
2018-06-24T07:29:21.695Z,59.11
2018-06-24T07:31:51.063Z,58.60
2018-06-24T07:34:20.535Z,59.71
2018-06-24T07:36:49.922Z,59.20
2018-06-24T07:39:19.382Z,58.04
2018-06-24T07:41:48.623Z,58.10
2018-06-24T07:44:17.993Z,58.96
2018-06-24T07:46:47.297Z,58.63
2018-06-24T07:49:16.708Z,58.02
2018-06-24T07:51:46.214Z,57.44
2018-06-24T07:54:15.530Z,54.70
2018-06-24T07:56:44.846Z,54.55
2018-06-24T07:59:14.007Z,55.09
2018-06-24T08:01:43.360Z,55.14
2018-06-24T08:04:12.770Z,54.08
2018-06-24T08:06:42.032Z,53.93
2018-06-24T08:09:12.598Z,54.65
2018-06-24T08:11:42.522Z,52.95
2018-06-24T08:14:11.834Z,52.56
2018-06-24T08:16:41.308Z,51.87
2018-06-24T08:19:10.592Z,51.72
2018-06-24T08:21:39.940Z,51.54
2018-06-24T08:24:09.235Z,50.30
2018-06-24T08:26:38.410Z,50.88
2018-06-24T08:29:07.748Z,50.53
2018-06-24T08:31:37.126Z,53.13
2018-06-24T08:34:06.970Z,50.41
2018-06-24T08:36:36.467Z,51.97
2018-06-24T08:39:09.099Z,52.39
2018-06-24T08:41:38.446Z,52.42
2018-06-24T08:44:08.602Z,52.33
2018-06-24T08:46:37.894Z,51.20
2018-06-24T08:49:07.911Z,50.47
2018-06-24T08:51:36.918Z,50.11
2018-06-24T08:54:06.235Z,50.35
2018-06-24T08:56:35.660Z,49.44
2018-06-24T08:59:05.235Z,49.15
2018-06-24T09:01:34.801Z,48.80
2018-06-24T09:04:04.395Z,47.43
2018-06-24T09:06:33.704Z,44.44
2018-06-24T09:09:03.267Z,41.90
2018-06-24T09:11:32.667Z,44.34
2018-06-24T09:14:02.119Z,43.15
2018-06-24T09:16:32.066Z,44.91
2018-06-24T09:19:01.457Z,42.66
2018-06-24T09:21:30.895Z,40.94
2018-06-24T09:24:00.295Z,41.46
2018-06-24T09:26:29.841Z,41.15
2018-06-24T09:28:59.185Z,41.80
2018-06-24T09:31:28.735Z,41.58
2018-06-24T09:33:58.192Z,40.85
2018-06-24T09:36:27.708Z,39.64
2018-06-24T09:38:57.174Z,38.64
2018-06-24T09:41:26.647Z,39.98
2018-06-24T09:43:56.126Z,39.59
2018-06-24T09:46:25.689Z,40.04
2018-06-24T09:48:55.062Z,40.02
2018-06-24T09:51:24.502Z,41.17
2018-06-24T09:53:53.901Z,41.53
2018-06-24T09:56:23.337Z,40.46
2018-06-24T09:58:52.715Z,41.45
2018-06-24T10:01:23.114Z,41.22
2018-06-24T10:03:52.440Z,39.67
2018-06-24T10:06:21.795Z,41.45
2018-06-24T10:08:51.441Z,40.43
2018-06-24T10:11:20.965Z,41.97
2018-06-24T10:13:50.390Z,42.15
2018-06-24T10:16:19.807Z,42.79
2018-06-24T10:18:49.247Z,41.19
2018-06-24T10:21:18.607Z,38.96
2018-06-24T10:23:48.000Z,40.67
2018-06-24T10:26:17.382Z,42.18
2018-06-24T10:28:46.782Z,42.01
2018-06-24T10:31:16.164Z,43.26
2018-06-24T10:33:45.648Z,43.43
2018-06-24T10:36:14.993Z,42.96
2018-06-24T10:38:44.374Z,42.56
2018-06-24T10:41:13.719Z,41.53
2018-06-24T10:43:42.984Z,42.00
2018-06-24T10:46:12.310Z,40.94
2018-06-24T10:48:41.339Z,41.36
2018-06-24T10:51:10.702Z,40.94
2018-06-24T10:53:40.280Z,42.27
2018-06-24T10:56:09.698Z,41.20
2018-06-24T10:58:39.132Z,42.02
2018-06-24T11:01:08.990Z,42.19
2018-06-24T11:03:38.355Z,41.90
2018-06-24T11:06:07.740Z,42.44
2018-06-24T11:08:36.838Z,40.15
2018-06-24T11:11:06.146Z,40.25
2018-06-24T11:13:35.246Z,40.59
2018-06-24T11:16:04.655Z,39.58
2018-06-24T11:18:34.053Z,40.74
2018-06-24T11:21:03.400Z,39.91
2018-06-24T11:23:32.733Z,39.01
2018-06-24T11:26:02.082Z,40.89
2018-06-24T11:28:31.840Z,40.72
2018-06-24T11:31:01.187Z,42.29
2018-06-24T11:33:30.521Z,41.73
2018-06-24T11:35:59.903Z,42.58
2018-06-24T11:38:28.955Z,43.01
2018-06-24T11:40:58.246Z,42.23
2018-06-24T11:43:27.539Z,43.10
2018-06-24T11:45:56.837Z,43.07
2018-06-24T11:48:26.099Z,42.38
2018-06-24T11:50:55.330Z,43.40
2018-06-24T11:53:24.653Z,42.61
2018-06-24T11:55:54.335Z,43.21
2018-06-24T11:58:23.702Z,43.06
2018-06-24T12:00:53.040Z,43.14
2018-06-24T12:03:22.564Z,43.35
2018-06-24T12:05:51.999Z,41.67
2018-06-24T12:08:21.093Z,41.52
2018-06-24T12:10:50.468Z,41.14
2018-06-24T12:13:19.691Z,40.07
2018-06-24T12:15:48.995Z,40.47
2018-06-24T12:18:18.457Z,40.44
2018-06-24T12:20:47.793Z,40.64
2018-06-24T12:23:17.137Z,40.10
2018-06-24T12:25:46.487Z,40.72
2018-06-24T12:28:15.840Z,38.79
2018-06-24T12:30:45.268Z,37.53
2018-06-24T12:33:14.566Z,34.85
2018-06-24T12:35:43.995Z,36.91
2018-06-24T12:38:13.367Z,36.73
2018-06-24T12:40:42.739Z,36.38
2018-06-24T12:43:12.069Z,37.60
2018-06-24T12:45:41.540Z,37.51
2018-06-24T12:48:10.852Z,37.06
2018-06-24T12:50:40.215Z,37.28
2018-06-24T12:53:09.519Z,37.35
2018-06-24T12:55:38.902Z,37.71
2018-06-24T12:58:08.374Z,37.37
2018-06-24T13:00:38.445Z,37.01
2018-06-24T13:03:06.864Z,37.52
2018-06-24T13:05:36.250Z,35.44
2018-06-24T13:08:05.715Z,37.40
2018-06-24T13:10:35.145Z,37.39
2018-06-24T13:13:04.703Z,36.17
2018-06-24T13:15:34.079Z,37.16
2018-06-24T13:18:03.567Z,36.47
2018-06-24T13:20:33.044Z,35.71
2018-06-24T13:23:02.497Z,35.67
2018-06-24T13:25:32.004Z,35.10
2018-06-24T13:28:01.869Z,35.82
2018-06-24T13:30:31.270Z,35.63
2018-06-24T13:33:01.186Z,36.22
2018-06-24T13:35:30.607Z,36.51
2018-06-24T13:38:00.091Z,37.79
2018-06-24T13:40:29.462Z,36.63
2018-06-24T13:42:58.717Z,36.50
2018-06-24T13:45:28.074Z,37.26
2018-06-24T13:47:57.408Z,38.73
2018-06-24T13:50:26.768Z,36.78
2018-06-24T13:52:56.215Z,37.09
2018-06-24T13:55:25.537Z,36.11
2018-06-24T13:57:54.902Z,36.25
2018-06-24T14:00:24.299Z,36.61
2018-06-24T14:02:53.623Z,38.70
2018-06-24T14:05:22.995Z,38.88
2018-06-24T14:07:52.493Z,39.99
2018-06-24T14:10:21.797Z,38.31
2018-06-24T14:12:51.171Z,38.40
2018-06-24T14:15:20.519Z,38.65
2018-06-24T14:17:49.973Z,37.53
2018-06-24T14:20:19.303Z,39.87
2018-06-24T14:22:48.666Z,39.27
2018-06-24T14:25:17.964Z,37.71
2018-06-24T14:27:47.322Z,39.57
2018-06-24T14:30:16.809Z,40.10
2018-06-24T14:32:46.201Z,39.58
2018-06-24T14:35:15.571Z,39.52
2018-06-24T14:37:44.905Z,39.50
2018-06-24T14:40:14.175Z,39.51
2018-06-24T14:42:43.537Z,41.43
2018-06-24T14:45:12.829Z,41.53
2018-06-24T14:47:42.089Z,41.33
2018-06-24T14:50:11.387Z,40.80
2018-06-24T14:52:40.663Z,40.91
2018-06-24T14:55:09.929Z,41.89
2018-06-24T14:57:39.267Z,40.00
2018-06-24T15:00:08.618Z,40.60
2018-06-24T15:02:41.745Z,41.13
2018-06-24T15:05:12.313Z,40.10
2018-06-24T15:07:42.072Z,40.86
2018-06-24T15:10:11.360Z,40.26
2018-06-24T15:12:40.659Z,40.82
2018-06-24T15:15:09.929Z,39.88
2018-06-24T15:17:39.285Z,40.94
2018-06-24T15:20:08.668Z,40.56
2018-06-24T15:22:37.978Z,40.28
2018-06-24T15:25:07.435Z,40.10
2018-06-24T15:27:36.845Z,40.83
2018-06-24T15:30:06.231Z,41.19
2018-06-24T15:32:35.582Z,41.12
2018-06-24T15:35:05.008Z,42.17
2018-06-24T15:37:34.534Z,40.65
2018-06-24T15:40:03.953Z,40.64
2018-06-24T15:42:33.339Z,40.58
2018-06-24T15:45:09.390Z,41.89
2018-06-24T15:47:38.807Z,41.17
2018-06-24T15:50:08.199Z,41.86
2018-06-24T15:52:37.572Z,42.21
2018-06-24T15:55:06.984Z,42.01
2018-06-24T15:57:36.415Z,42.17
2018-06-24T16:00:06.181Z,41.68
2018-06-24T16:02:35.507Z,42.46
2018-06-24T16:05:04.701Z,42.40
2018-06-24T16:07:34.134Z,42.16
2018-06-24T16:10:03.579Z,43.01
2018-06-24T16:12:33.000Z,42.64
2018-06-24T16:15:02.474Z,43.01
2018-06-24T16:17:31.901Z,42.18
2018-06-24T16:20:00.994Z,42.64
2018-06-24T16:22:30.046Z,43.97
2018-06-24T16:24:59.420Z,43.71
2018-06-24T16:27:28.536Z,42.46
2018-06-24T16:29:57.540Z,44.22
2018-06-24T16:32:26.849Z,44.22
2018-06-24T16:34:56.190Z,43.42
2018-06-24T16:37:28.367Z,43.80
2018-06-24T16:39:57.655Z,43.35
2018-06-24T16:42:27.059Z,43.22
2018-06-24T16:44:56.195Z,42.80
2018-06-24T16:47:25.497Z,42.84
2018-06-24T16:49:54.663Z,43.37
2018-06-24T16:52:24.096Z,43.63
2018-06-24T16:54:53.510Z,42.75
2018-06-24T16:57:22.926Z,42.18
2018-06-24T16:59:52.225Z,42.47
2018-06-24T17:02:21.580Z,43.13
2018-06-24T17:04:51.129Z,43.55
2018-06-24T17:09:42.126Z,43.14
2018-06-24T17:12:11.507Z,42.54
2018-06-24T17:14:40.863Z,44.04
2018-06-24T17:17:10.218Z,44.29
2018-06-24T17:19:39.482Z,44.92
2018-06-24T17:22:08.737Z,44.66
2018-06-24T17:24:38.005Z,44.27
2018-06-24T17:27:07.441Z,45.05
2018-06-24T17:29:36.742Z,44.26
2018-06-24T17:32:06.075Z,45.88
2018-06-24T17:34:35.436Z,45.43
2018-06-24T17:37:04.788Z,45.82
2018-06-24T17:39:34.159Z,46.08
2018-06-24T17:42:03.636Z,45.99
2018-06-24T17:44:33.279Z,46.54
2018-06-24T17:47:02.791Z,45.02
2018-06-24T17:49:32.142Z,46.04
2018-06-24T17:52:01.600Z,45.44
2018-06-24T17:54:30.923Z,45.42
2018-06-24T17:57:00.314Z,45.89
2018-06-24T17:59:29.578Z,45.42
2018-06-24T18:01:58.927Z,45.89
2018-06-24T18:04:28.279Z,45.79
2018-06-24T18:06:57.609Z,45.80
2018-06-24T18:09:26.885Z,46.33
2018-06-24T18:11:56.170Z,46.93
2018-06-24T18:14:25.527Z,47.23
2018-06-24T18:16:55.187Z,47.34
2018-06-24T18:19:24.600Z,47.74
2018-06-24T18:21:53.934Z,48.18
2018-06-24T18:24:23.318Z,49.17
2018-06-24T18:26:52.672Z,49.29
2018-06-24T18:29:22.013Z,48.82
2018-06-24T18:31:51.294Z,48.61
2018-06-24T18:34:20.621Z,49.38
2018-06-24T18:36:50.173Z,49.56
2018-06-24T18:39:19.506Z,49.50
2018-06-24T18:41:48.763Z,49.81
2018-06-24T18:44:18.078Z,50.10
2018-06-24T18:46:47.072Z,50.66
2018-06-24T18:49:16.417Z,50.95
2018-06-24T18:51:45.686Z,50.99
2018-06-24T18:54:14.969Z,50.48
2018-06-24T18:56:44.014Z,50.91
2018-06-24T18:59:13.285Z,51.22
2018-06-24T19:01:42.577Z,51.41
2018-06-24T19:04:11.851Z,50.74
2018-06-24T19:06:41.272Z,51.43
2018-06-24T19:09:12.624Z,51.05
2018-06-24T19:11:42.460Z,51.45
2018-06-24T19:14:11.723Z,51.62
2018-06-24T19:16:41.619Z,51.73
2018-06-24T19:19:11.036Z,52.27
2018-06-24T19:21:40.373Z,52.72
2018-06-24T19:24:09.468Z,52.56
2018-06-24T19:26:38.455Z,52.70
2018-06-24T19:29:07.827Z,52.16
2018-06-24T19:31:37.249Z,52.68
2018-06-24T19:34:06.733Z,53.01
2018-06-24T19:36:36.127Z,52.92
2018-06-24T19:39:09.613Z,53.62
2018-06-24T19:41:39.383Z,53.39
2018-06-24T19:44:08.866Z,53.82
2018-06-24T19:46:38.153Z,53.46
2018-06-24T19:49:07.474Z,53.72
2018-06-24T19:51:36.831Z,53.71
2018-06-24T19:54:06.335Z,54.23
2018-06-24T19:56:35.762Z,54.56
2018-06-24T19:59:04.940Z,54.73
2018-06-24T20:01:34.549Z,54.62
2018-06-24T20:04:03.889Z,54.24
2018-06-24T20:06:33.259Z,53.53
2018-06-24T20:09:02.587Z,54.05
2018-06-24T20:11:31.871Z,53.25
2018-06-24T20:14:01.203Z,54.27
2018-06-24T20:16:30.555Z,54.38
2018-06-24T20:18:59.888Z,54.69
2018-06-24T20:21:29.187Z,54.64
2018-06-24T20:23:58.445Z,54.75
2018-06-24T20:26:27.860Z,54.20
2018-06-24T20:28:57.143Z,54.67
2018-06-24T20:31:26.444Z,54.29
2018-06-24T20:33:55.760Z,54.96
2018-06-24T20:36:25.078Z,54.39
2018-06-24T20:38:54.367Z,54.25
2018-06-24T20:41:23.735Z,54.20
2018-06-24T20:43:52.766Z,54.66
2018-06-24T20:46:22.222Z,54.86
2018-06-24T20:48:51.596Z,55.03
2018-06-24T20:51:21.635Z,55.24
2018-06-24T20:53:51.040Z,55.50
2018-06-24T20:56:20.513Z,55.57
2018-06-24T20:58:49.514Z,55.65
2018-06-24T21:01:18.775Z,56.29
2018-06-24T21:03:48.119Z,56.67
2018-06-24T21:06:17.452Z,56.75
2018-06-24T21:08:46.743Z,56.57
2018-06-24T21:11:16.095Z,56.81
2018-06-24T21:13:45.162Z,57.02
2018-06-24T21:16:14.494Z,56.97
2018-06-24T21:18:43.891Z,56.53
2018-06-24T21:21:13.169Z,56.33
2018-06-24T21:23:42.468Z,56.24
2018-06-24T21:26:11.744Z,56.71
2018-06-24T21:28:40.995Z,56.92
2018-06-24T21:31:10.318Z,56.70
2018-06-24T21:33:39.560Z,56.79
2018-06-24T21:36:08.903Z,56.51
2018-06-24T21:38:38.192Z,56.47
2018-06-24T21:41:07.457Z,56.96
2018-06-24T21:43:36.670Z,57.24
2018-06-24T21:46:06.370Z,57.18
2018-06-24T21:48:36.066Z,56.81
2018-06-24T21:51:05.314Z,57.43
2018-06-24T21:53:34.646Z,57.45
2018-06-24T21:56:03.979Z,58.05
2018-06-24T21:58:33.253Z,57.77
2018-06-24T22:01:02.569Z,57.69
2018-06-24T22:03:31.782Z,56.82
2018-06-24T22:06:00.991Z,57.66
2018-06-24T22:08:30.187Z,57.48
2018-06-24T22:10:59.369Z,57.38
2018-06-24T22:13:28.607Z,57.79
2018-06-24T22:15:57.782Z,58.06
2018-06-24T22:18:27.022Z,58.19
2018-06-24T22:20:56.254Z,57.99
2018-06-24T22:23:25.467Z,57.98
2018-06-24T22:25:54.671Z,58.16
2018-06-24T22:28:24.150Z,57.98
2018-06-24T22:30:53.351Z,57.80
2018-06-24T22:33:22.626Z,57.88
2018-06-24T22:35:51.822Z,58.54
2018-06-24T22:38:21.170Z,58.30
2018-06-24T22:40:50.125Z,58.55
2018-06-24T22:43:21.313Z,58.40
2018-06-24T22:45:51.036Z,58.40
2018-06-24T22:48:20.411Z,59.08
2018-06-24T22:50:49.626Z,58.89
2018-06-24T22:53:19.341Z,59.16
2018-06-24T22:55:48.524Z,59.07
2018-06-24T22:58:17.558Z,59.68
2018-06-24T23:00:46.771Z,59.66
2018-06-24T23:03:16.007Z,59.50
2018-06-24T23:05:45.214Z,60.04
2018-06-24T23:08:14.402Z,59.98
2018-06-24T23:10:43.622Z,60.24
2018-06-24T23:13:12.814Z,60.06
2018-06-24T23:15:42.079Z,60.21
2018-06-24T23:18:11.275Z,60.56
2018-06-24T23:20:40.494Z,60.76
2018-06-24T23:23:09.669Z,60.90
2018-06-24T23:25:38.943Z,60.18
2018-06-24T23:28:08.162Z,60.84
2018-06-24T23:30:37.395Z,60.44
2018-06-24T23:33:06.595Z,60.93
2018-06-24T23:35:35.808Z,61.05
2018-06-24T23:38:05.435Z,61.02
2018-06-24T23:40:34.631Z,61.08
2018-06-24T23:43:03.802Z,61.37
2018-06-24T23:45:33.010Z,60.93
2018-06-24T23:48:02.187Z,61.01
2018-06-24T23:50:31.406Z,61.31
2018-06-24T23:53:00.603Z,61.01
2018-06-24T23:55:29.866Z,61.85
2018-06-24T23:57:59.062Z,61.23
